createdAt,value
2019-02-20T00:00:04.133Z,1015.47
2019-02-20T00:01:04.178Z,1015.48
2019-02-20T00:02:04.179Z,1015.51
2019-02-20T00:03:04.184Z,1015.52
2019-02-20T00:04:04.263Z,1015.58
2019-02-20T00:05:04.218Z,1015.56
2019-02-20T00:06:04.234Z,1015.62
2019-02-20T00:07:04.253Z,1015.65
2019-02-20T00:08:04.292Z,1015.66
2019-02-20T00:09:04.286Z,1015.66
2019-02-20T00:10:04.304Z,1015.62
2019-02-20T00:11:04.320Z,1015.66
2019-02-20T00:12:04.339Z,1015.66
2019-02-20T00:13:04.362Z,1015.70
2019-02-20T00:14:04.372Z,1015.71
2019-02-20T00:15:04.400Z,1015.70
2019-02-20T00:16:04.410Z,1015.74
2019-02-20T00:17:04.434Z,1015.76
2019-02-20T00:18:04.445Z,1015.72
2019-02-20T00:19:04.469Z,1015.74
2019-02-20T00:20:04.478Z,1015.73
2019-02-20T00:21:04.498Z,1015.73
2019-02-20T00:22:04.526Z,1015.72
2019-02-20T00:23:04.530Z,1015.74
2019-02-20T00:24:04.550Z,1015.76
2019-02-20T00:25:04.567Z,1015.75
2019-02-20T00:26:04.586Z,1015.76
2019-02-20T00:27:04.605Z,1015.71
2019-02-20T00:28:04.618Z,1015.72
2019-02-20T00:29:04.635Z,1015.76
2019-02-20T00:30:04.654Z,1015.77
2019-02-20T00:31:04.685Z,1015.74
2019-02-20T00:32:04.688Z,1015.75
2019-02-20T00:33:04.705Z,1015.74
2019-02-20T00:34:04.724Z,1015.74
2019-02-20T00:35:04.750Z,1015.77
2019-02-20T00:36:04.759Z,1015.74
2019-02-20T00:37:04.775Z,1015.78
2019-02-20T00:38:04.816Z,1015.73
2019-02-20T00:39:04.813Z,1015.76
2019-02-20T00:40:04.829Z,1015.77
2019-02-20T00:41:04.851Z,1015.76
2019-02-20T00:42:04.866Z,1015.78
2019-02-20T00:43:04.883Z,1015.78
2019-02-20T00:44:04.900Z,1015.78
2019-02-20T00:45:04.916Z,1015.80
2019-02-20T00:46:04.936Z,1015.85
2019-02-20T00:47:04.955Z,1015.84
2019-02-20T00:48:04.978Z,1015.80
2019-02-20T00:49:04.988Z,1015.83
2019-02-20T00:50:05.006Z,1015.80
2019-02-20T00:51:05.025Z,1015.82
2019-02-20T00:52:05.041Z,1015.84
2019-02-20T00:53:05.060Z,1015.87
2019-02-20T00:54:05.079Z,1015.84
2019-02-20T00:55:05.097Z,1015.88
2019-02-20T00:56:05.110Z,1015.90
2019-02-20T00:57:05.129Z,1015.88
2019-02-20T00:58:05.149Z,1015.86
2019-02-20T00:59:05.170Z,1015.86
2019-02-20T01:00:05.188Z,1015.88
2019-02-20T01:01:05.203Z,1015.89
2019-02-20T01:02:05.230Z,1015.89
2019-02-20T01:03:05.252Z,1015.90
2019-02-20T01:04:05.254Z,1015.93
2019-02-20T01:05:05.275Z,1015.89
2019-02-20T01:06:05.301Z,1015.93
2019-02-20T01:07:05.313Z,1015.91
2019-02-20T01:08:05.326Z,1015.94
2019-02-20T01:09:05.344Z,1015.96
2019-02-20T01:10:05.362Z,1016.01
2019-02-20T01:11:05.381Z,1016.01
2019-02-20T01:12:05.398Z,1016.06
2019-02-20T01:13:05.417Z,1016.04
2019-02-20T01:14:05.435Z,1016.08
2019-02-20T01:15:05.456Z,1016.11
2019-02-20T01:16:05.472Z,1016.12
2019-02-20T01:17:05.489Z,1016.19
2019-02-20T01:18:05.506Z,1016.15
2019-02-20T01:19:05.531Z,1016.21
2019-02-20T01:20:05.542Z,1016.23
2019-02-20T01:21:05.562Z,1016.22
2019-02-20T01:22:05.585Z,1016.23
2019-02-20T01:23:05.597Z,1016.23
2019-02-20T01:24:05.613Z,1016.22
2019-02-20T01:25:05.634Z,1016.23
2019-02-20T01:26:05.661Z,1016.23
2019-02-20T01:27:05.669Z,1016.22
2019-02-20T01:28:05.687Z,1016.17
2019-02-20T01:29:05.719Z,1016.18
2019-02-20T01:30:05.725Z,1016.19
2019-02-20T01:31:05.748Z,1016.21
2019-02-20T01:32:05.763Z,1016.23
2019-02-20T01:33:05.778Z,1016.24
2019-02-20T01:34:05.802Z,1016.21
2019-02-20T01:35:05.819Z,1016.25
2019-02-20T01:36:05.838Z,1016.25
2019-02-20T01:37:05.854Z,1016.34
2019-02-20T01:38:05.873Z,1016.34
2019-02-20T01:39:05.888Z,1016.31
2019-02-20T01:40:05.909Z,1016.32
2019-02-20T01:41:05.928Z,1016.32
2019-02-20T01:42:05.945Z,1016.34
2019-02-20T01:43:05.969Z,1016.40
2019-02-20T01:44:05.982Z,1016.42
2019-02-20T01:45:05.999Z,1016.44
2019-02-20T01:46:06.019Z,1016.46
2019-02-20T01:47:06.036Z,1016.48
2019-02-20T01:48:06.054Z,1016.45
2019-02-20T01:49:06.076Z,1016.49
2019-02-20T01:50:06.090Z,1016.54
2019-02-20T01:51:06.108Z,1016.51
2019-02-20T01:52:06.129Z,1016.56
2019-02-20T01:53:10.404Z,1016.55
2019-02-20T01:54:06.164Z,1016.62
2019-02-20T01:55:06.186Z,1016.60
2019-02-20T01:56:06.205Z,1016.61
2019-02-20T01:57:06.230Z,1016.58
2019-02-20T01:58:06.239Z,1016.62
2019-02-20T01:59:06.255Z,1016.61
2019-02-20T02:00:06.273Z,1016.61
2019-02-20T02:01:06.294Z,1016.60
2019-02-20T02:02:06.315Z,1016.64
2019-02-20T02:03:06.329Z,1016.59
2019-02-20T02:04:06.346Z,1016.59
2019-02-20T02:05:14.542Z,1016.58
2019-02-20T02:06:06.388Z,1016.57
2019-02-20T02:07:06.449Z,1016.60
2019-02-20T02:08:06.421Z,1016.62
2019-02-20T02:09:06.446Z,1016.65
2019-02-20T02:10:06.460Z,1016.66
2019-02-20T02:11:06.480Z,1016.69
2019-02-20T02:12:06.496Z,1016.71
2019-02-20T02:13:06.514Z,1016.69
2019-02-20T02:14:06.531Z,1016.65
2019-02-20T02:15:06.553Z,1016.72
2019-02-20T02:16:06.571Z,1016.66
2019-02-20T02:17:06.592Z,1016.69
2019-02-20T02:18:06.612Z,1016.74
2019-02-20T02:19:06.626Z,1016.76
2019-02-20T02:20:06.642Z,1016.76
2019-02-20T02:21:06.753Z,1016.80
2019-02-20T02:22:06.679Z,1016.76
2019-02-20T02:23:06.699Z,1016.78
2019-02-20T02:24:06.718Z,1016.81
2019-02-20T02:25:06.740Z,1016.84
2019-02-20T02:26:10.872Z,1016.82
2019-02-20T02:27:06.773Z,1016.82
2019-02-20T02:28:06.792Z,1016.88
2019-02-20T02:29:06.837Z,1016.85
2019-02-20T02:30:06.832Z,1016.90
2019-02-20T02:31:06.848Z,1016.86
2019-02-20T02:32:06.867Z,1016.87
2019-02-20T02:33:06.884Z,1016.85
2019-02-20T02:34:06.903Z,1016.87
2019-02-20T02:35:06.929Z,1016.89
2019-02-20T02:36:06.942Z,1016.89
2019-02-20T02:37:06.963Z,1016.86
2019-02-20T02:38:06.986Z,1016.87
2019-02-20T02:39:06.996Z,1016.86
2019-02-20T02:40:07.022Z,1016.87
2019-02-20T02:41:07.033Z,1016.83
2019-02-20T02:42:07.073Z,1016.86
2019-02-20T02:43:07.073Z,1016.86
2019-02-20T02:44:07.089Z,1016.83
2019-02-20T02:45:07.116Z,1016.85
2019-02-20T02:46:07.130Z,1016.82
2019-02-20T02:47:07.151Z,1016.82
2019-02-20T02:48:07.168Z,1016.82
2019-02-20T02:49:07.185Z,1016.86
2019-02-20T02:50:07.218Z,1016.83
2019-02-20T02:51:07.224Z,1016.88
2019-02-20T02:52:07.249Z,1016.87
2019-02-20T02:53:07.263Z,1016.84
2019-02-20T02:54:07.279Z,1016.86
2019-02-20T02:55:07.302Z,1016.88
2019-02-20T02:56:07.315Z,1016.86
2019-02-20T02:57:07.342Z,1016.86
2019-02-20T02:58:07.356Z,1016.86
2019-02-20T02:59:07.377Z,1016.82
2019-02-20T03:00:07.393Z,1016.82
2019-02-20T03:01:07.412Z,1016.80
2019-02-20T03:02:07.431Z,1016.80
2019-02-20T03:03:07.460Z,1016.81
2019-02-20T03:04:07.468Z,1016.77
2019-02-20T03:05:07.489Z,1016.77
2019-02-20T03:06:07.509Z,1016.78
2019-02-20T03:07:07.532Z,1016.76
2019-02-20T03:08:07.552Z,1016.76
2019-02-20T03:09:07.565Z,1016.75
2019-02-20T03:10:07.586Z,1016.72
2019-02-20T03:11:07.608Z,1016.70
2019-02-20T03:12:07.620Z,1016.67
2019-02-20T03:13:07.644Z,1016.71
2019-02-20T03:14:07.658Z,1016.67
2019-02-20T03:15:07.689Z,1016.64
2019-02-20T03:16:07.696Z,1016.64
2019-02-20T03:17:07.716Z,1016.59
2019-02-20T03:18:07.735Z,1016.55
2019-02-20T03:19:07.752Z,1016.58
2019-02-20T03:20:07.774Z,1016.56
2019-02-20T03:21:07.794Z,1016.53
2019-02-20T03:22:07.810Z,1016.54
2019-02-20T03:23:07.831Z,1016.53
2019-02-20T03:24:07.865Z,1016.52
2019-02-20T03:25:07.867Z,1016.56
2019-02-20T03:26:07.889Z,1016.52
2019-02-20T03:27:07.908Z,1016.53
2019-02-20T03:28:07.927Z,1016.49
2019-02-20T03:29:07.971Z,1016.48
2019-02-20T03:30:07.989Z,1016.52
2019-02-20T03:31:07.987Z,1016.44
2019-02-20T03:32:08.006Z,1016.46
2019-02-20T03:33:08.022Z,1016.45
2019-02-20T03:34:09.106Z,1016.42
2019-02-20T03:35:08.062Z,1016.43
2019-02-20T03:36:08.080Z,1016.41
2019-02-20T03:37:08.101Z,1016.43
2019-02-20T03:38:08.125Z,1016.43
2019-02-20T03:39:08.137Z,1016.42
2019-02-20T03:40:08.159Z,1016.42
2019-02-20T03:41:08.177Z,1016.42
2019-02-20T03:42:08.202Z,1016.42
2019-02-20T03:43:08.218Z,1016.37
2019-02-20T03:44:08.249Z,1016.39
2019-02-20T03:45:08.253Z,1016.36
2019-02-20T03:46:08.285Z,1016.31
2019-02-20T03:47:08.297Z,1016.33
2019-02-20T03:48:08.314Z,1016.30
2019-02-20T03:49:08.332Z,1016.28
2019-02-20T03:50:08.350Z,1016.28
2019-02-20T03:51:08.372Z,1016.22
2019-02-20T03:52:08.391Z,1016.18
2019-02-20T03:53:08.407Z,1016.17
2019-02-20T03:54:08.436Z,1016.15
2019-02-20T03:55:08.449Z,1016.12
2019-02-20T03:56:08.465Z,1016.09
2019-02-20T03:57:08.487Z,1016.10
2019-02-20T03:58:08.506Z,1016.11
2019-02-20T03:59:08.535Z,1016.10
2019-02-20T04:00:08.544Z,1016.06
2019-02-20T04:01:08.565Z,1016.06
2019-02-20T04:02:08.673Z,1016.10
2019-02-20T04:03:08.605Z,1016.07
2019-02-20T04:04:08.622Z,1016.05
2019-02-20T04:05:08.641Z,1016.00
2019-02-20T04:06:08.667Z,1016.00
2019-02-20T04:07:08.685Z,1015.99
2019-02-20T04:08:08.698Z,1015.90
2019-02-20T04:09:08.722Z,1015.93
2019-02-20T04:10:09.127Z,1015.92
2019-02-20T04:11:08.766Z,1015.94
2019-02-20T04:12:08.777Z,1015.93
2019-02-20T04:13:08.797Z,1015.90
2019-02-20T04:14:08.815Z,1015.91
2019-02-20T04:15:08.839Z,1015.87
2019-02-20T04:16:08.859Z,1015.87
2019-02-20T04:17:08.876Z,1015.82
2019-02-20T04:18:10.739Z,1015.79
2019-02-20T04:19:08.922Z,1015.78
2019-02-20T04:20:08.935Z,1015.79
2019-02-20T04:21:08.960Z,1015.74
2019-02-20T04:22:08.975Z,1015.72
2019-02-20T04:23:08.993Z,1015.74
2019-02-20T04:24:09.016Z,1015.73
2019-02-20T04:25:09.032Z,1015.70
2019-02-20T04:26:09.955Z,1015.68
2019-02-20T04:27:09.075Z,1015.65
2019-02-20T04:28:09.109Z,1015.62
2019-02-20T04:29:09.118Z,1015.62
2019-02-20T04:30:09.132Z,1015.59
2019-02-20T04:31:09.153Z,1015.56
2019-02-20T04:32:09.180Z,1015.54
2019-02-20T04:33:09.192Z,1015.51
2019-02-20T04:34:09.212Z,1015.45
2019-02-20T04:35:09.229Z,1015.47
2019-02-20T04:36:09.256Z,1015.45
2019-02-20T04:37:09.329Z,1015.45
2019-02-20T04:38:09.291Z,1015.43
2019-02-20T04:39:09.309Z,1015.47
2019-02-20T04:40:09.334Z,1015.39
2019-02-20T04:41:09.346Z,1015.32
2019-02-20T04:42:09.376Z,1015.32
2019-02-20T04:43:09.387Z,1015.33
2019-02-20T04:44:09.409Z,1015.30
2019-02-20T04:45:09.428Z,1015.28
2019-02-20T04:46:09.444Z,1015.24
2019-02-20T04:47:09.468Z,1015.23
2019-02-20T04:48:09.489Z,1015.18
2019-02-20T04:49:09.506Z,1015.18
2019-02-20T04:50:09.574Z,1015.11
2019-02-20T04:51:09.547Z,1015.15
2019-02-20T04:52:09.563Z,1015.11
2019-02-20T04:53:09.585Z,1015.12
2019-02-20T04:54:13.504Z,1015.10
2019-02-20T04:55:09.625Z,1015.05
2019-02-20T04:56:09.683Z,1015.09
2019-02-20T04:57:09.666Z,1015.01
2019-02-20T04:58:09.688Z,1015.02
2019-02-20T04:59:09.704Z,1015.02
2019-02-20T05:00:09.724Z,1014.99
2019-02-20T05:01:09.747Z,1014.96
2019-02-20T05:02:09.765Z,1015.03
2019-02-20T05:03:09.783Z,1015.02
2019-02-20T05:04:09.806Z,1014.98
2019-02-20T05:05:09.821Z,1014.95
2019-02-20T05:06:09.845Z,1014.92
2019-02-20T05:07:09.883Z,1014.92
2019-02-20T05:08:09.883Z,1014.91
2019-02-20T05:09:09.901Z,1014.92
2019-02-20T05:10:09.930Z,1014.89
2019-02-20T05:11:09.950Z,1014.88
2019-02-20T05:12:09.961Z,1014.89
2019-02-20T05:13:09.988Z,1014.85
2019-02-20T05:14:10.001Z,1014.82
2019-02-20T05:15:10.025Z,1014.79
2019-02-20T05:16:10.042Z,1014.82
2019-02-20T05:17:10.062Z,1014.76
2019-02-20T05:18:10.086Z,1014.74
2019-02-20T05:19:10.101Z,1014.73
2019-02-20T05:20:10.121Z,1014.68
2019-02-20T05:21:10.143Z,1014.72
2019-02-20T05:22:10.163Z,1014.70
2019-02-20T05:23:10.202Z,1014.66
2019-02-20T05:24:10.200Z,1014.66
2019-02-20T05:25:10.221Z,1014.69
2019-02-20T05:26:10.241Z,1014.66
2019-02-20T05:27:10.281Z,1014.67
2019-02-20T05:28:10.280Z,1014.64
2019-02-20T05:29:10.310Z,1014.65
2019-02-20T05:30:10.323Z,1014.62
2019-02-20T05:31:10.342Z,1014.58
2019-02-20T05:32:10.363Z,1014.57
2019-02-20T05:33:10.388Z,1014.55
2019-02-20T05:34:10.405Z,1014.50
2019-02-20T05:35:10.445Z,1014.49
2019-02-20T05:36:10.456Z,1014.44
2019-02-20T05:37:10.464Z,1014.43
2019-02-20T05:38:10.493Z,1014.43
2019-02-20T05:39:10.505Z,1014.36
2019-02-20T05:40:10.530Z,1014.36
2019-02-20T05:41:10.545Z,1014.34
2019-02-20T05:42:10.565Z,1014.33
2019-02-20T05:43:10.587Z,1014.33
2019-02-20T05:44:10.602Z,1014.31
2019-02-20T05:45:10.622Z,1014.29
2019-02-20T05:46:10.655Z,1014.31
2019-02-20T05:47:10.672Z,1014.31
2019-02-20T05:48:10.687Z,1014.28
2019-02-20T05:49:10.711Z,1014.21
2019-02-20T05:50:10.729Z,1014.27
2019-02-20T05:51:10.749Z,1014.15
2019-02-20T05:52:10.769Z,1014.15
2019-02-20T05:53:10.791Z,1014.11
2019-02-20T05:54:10.810Z,1014.08
2019-02-20T05:55:10.826Z,1014.05
2019-02-20T05:56:10.846Z,1014.04
2019-02-20T05:57:10.873Z,1014.07
2019-02-20T05:58:10.904Z,1014.02
2019-02-20T05:59:10.910Z,1014.02
2019-02-20T06:00:10.937Z,1014.02
2019-02-20T06:01:10.948Z,1013.96
2019-02-20T06:02:10.968Z,1014.02
2019-02-20T06:03:10.992Z,1013.93
2019-02-20T06:04:11.029Z,1013.95
2019-02-20T06:05:11.028Z,1013.96
2019-02-20T06:06:11.072Z,1013.98
2019-02-20T06:07:11.068Z,1013.89
2019-02-20T06:08:11.112Z,1013.85
2019-02-20T06:09:11.111Z,1013.82
2019-02-20T06:10:11.130Z,1013.81
2019-02-20T06:11:14.799Z,1013.79
2019-02-20T06:12:11.172Z,1013.78
2019-02-20T06:13:11.201Z,1013.78
2019-02-20T06:14:11.212Z,1013.78
2019-02-20T06:15:11.235Z,1013.71
2019-02-20T06:16:11.253Z,1013.69
2019-02-20T06:17:11.282Z,1013.66
2019-02-20T06:18:11.295Z,1013.65
2019-02-20T06:19:11.314Z,1013.61
2019-02-20T06:20:11.333Z,1013.61
2019-02-20T06:21:11.365Z,1013.53
2019-02-20T06:22:11.377Z,1013.46
2019-02-20T06:23:11.399Z,1013.44
2019-02-20T06:24:11.415Z,1013.43
2019-02-20T06:25:11.439Z,1013.45
2019-02-20T06:26:11.463Z,1013.40
2019-02-20T06:27:11.482Z,1013.37
2019-02-20T06:28:11.513Z,1013.32
2019-02-20T06:29:11.521Z,1013.34
2019-02-20T06:30:11.552Z,1013.32
2019-02-20T06:31:11.561Z,1013.30
2019-02-20T06:32:11.577Z,1013.33
2019-02-20T06:33:11.600Z,1013.24
2019-02-20T06:34:11.624Z,1013.22
2019-02-20T06:35:11.638Z,1013.22
2019-02-20T06:36:11.660Z,1013.17
2019-02-20T06:37:11.691Z,1013.15
2019-02-20T06:38:11.893Z,1013.12
2019-02-20T06:39:11.727Z,1013.07
2019-02-20T06:40:11.747Z,1013.00
2019-02-20T06:41:11.762Z,1012.95
2019-02-20T06:42:11.786Z,1013.03
2019-02-20T06:43:11.805Z,1013.03
2019-02-20T06:44:11.826Z,1012.96
2019-02-20T06:45:11.851Z,1012.92
2019-02-20T06:46:11.865Z,1012.91
2019-02-20T06:47:11.885Z,1012.89
2019-02-20T06:48:11.906Z,1012.87
2019-02-20T06:49:11.924Z,1012.88
2019-02-20T06:50:11.948Z,1012.82
2019-02-20T06:51:11.967Z,1012.79
2019-02-20T06:52:11.989Z,1012.78
2019-02-20T06:53:12.010Z,1012.76
2019-02-20T06:54:12.026Z,1012.76
2019-02-20T06:55:12.046Z,1012.71
2019-02-20T06:56:12.067Z,1012.70
2019-02-20T06:57:12.086Z,1012.65
2019-02-20T06:58:12.109Z,1012.70
2019-02-20T06:59:12.128Z,1012.66
2019-02-20T07:00:12.147Z,1012.61
2019-02-20T07:01:12.169Z,1012.62
2019-02-20T07:02:12.195Z,1012.57
2019-02-20T07:03:12.215Z,1012.52
2019-02-20T07:04:12.230Z,1012.53
2019-02-20T07:05:12.254Z,1012.48
2019-02-20T07:06:12.271Z,1012.49
2019-02-20T07:07:12.288Z,1012.52
2019-02-20T07:08:12.315Z,1012.52
2019-02-20T07:09:12.332Z,1012.50
2019-02-20T07:10:12.352Z,1012.44
2019-02-20T07:11:12.375Z,1012.46
2019-02-20T07:12:12.390Z,1012.42
2019-02-20T07:13:12.413Z,1012.50
2019-02-20T07:14:12.431Z,1012.37
2019-02-20T07:15:12.458Z,1012.45
2019-02-20T07:16:12.473Z,1012.39
2019-02-20T07:17:12.496Z,1012.35
2019-02-20T07:18:12.516Z,1012.37
2019-02-20T07:19:12.542Z,1012.33
2019-02-20T07:20:12.562Z,1012.31
2019-02-20T07:21:12.575Z,1012.27
2019-02-20T07:22:12.602Z,1012.23
2019-02-20T07:23:12.616Z,1012.24
2019-02-20T07:24:12.638Z,1012.21
2019-02-20T07:25:12.659Z,1012.22
2019-02-20T07:26:12.682Z,1012.16
2019-02-20T07:27:12.705Z,1012.16
2019-02-20T07:28:12.719Z,1012.15
2019-02-20T07:29:12.740Z,1012.17
2019-02-20T07:30:12.810Z,1012.14
2019-02-20T07:31:12.782Z,1012.10
2019-02-20T07:32:12.904Z,1012.07
2019-02-20T07:33:12.823Z,1012.10
2019-02-20T07:34:12.849Z,1012.05
2019-02-20T07:35:12.865Z,1012.10
2019-02-20T07:36:12.884Z,1012.06
2019-02-20T07:37:12.910Z,1012.04
2019-02-20T07:38:12.944Z,1012.02
2019-02-20T07:39:12.947Z,1011.97
2019-02-20T07:40:12.971Z,1011.94
2019-02-20T07:41:12.987Z,1011.91
2019-02-20T07:42:13.008Z,1011.89
2019-02-20T07:43:13.030Z,1011.88
2019-02-20T07:44:13.054Z,1011.88
2019-02-20T07:45:13.072Z,1011.90
2019-02-20T07:46:13.090Z,1011.87
2019-02-20T07:47:13.117Z,1011.84
2019-02-20T07:48:13.133Z,1011.78
2019-02-20T07:49:13.161Z,1011.81
2019-02-20T07:50:13.179Z,1011.80
2019-02-20T07:51:14.894Z,1011.82
2019-02-20T07:52:13.216Z,1011.77
2019-02-20T07:53:13.297Z,1011.70
2019-02-20T07:54:13.260Z,1011.71
2019-02-20T07:55:13.828Z,1011.71
2019-02-20T07:56:13.307Z,1011.69
2019-02-20T07:57:13.322Z,1011.65
2019-02-20T07:58:13.344Z,1011.71
2019-02-20T07:59:13.371Z,1011.71
2019-02-20T08:00:13.381Z,1011.73
2019-02-20T08:01:13.408Z,1011.65
2019-02-20T08:02:13.421Z,1011.78
2019-02-20T08:03:13.452Z,1011.74
2019-02-20T08:04:13.472Z,1011.72
2019-02-20T08:05:13.489Z,1011.73
2019-02-20T08:06:13.507Z,1011.67
2019-02-20T08:07:13.526Z,1011.71
2019-02-20T08:08:13.545Z,1011.68
2019-02-20T08:09:13.563Z,1011.74
2019-02-20T08:10:13.631Z,1011.78
2019-02-20T08:11:13.610Z,1011.68
2019-02-20T08:12:13.625Z,1011.67
2019-02-20T08:13:13.649Z,1011.69
2019-02-20T08:14:13.682Z,1011.73
2019-02-20T08:15:13.711Z,1011.74
2019-02-20T08:16:13.709Z,1011.77
2019-02-20T08:17:13.728Z,1011.71
2019-02-20T08:18:13.749Z,1011.69
2019-02-20T08:19:13.771Z,1011.70
2019-02-20T08:20:13.792Z,1011.70
2019-02-20T08:21:13.814Z,1011.63
2019-02-20T08:22:13.837Z,1011.65
2019-02-20T08:23:13.858Z,1011.71
2019-02-20T08:24:13.903Z,1011.70
2019-02-20T08:25:22.265Z,1011.74
2019-02-20T08:26:13.914Z,1011.74
2019-02-20T08:27:13.935Z,1011.77
2019-02-20T08:28:13.977Z,1011.76
2019-02-20T08:29:13.978Z,1011.80
2019-02-20T08:30:14.007Z,1011.71
2019-02-20T08:31:14.020Z,1011.75
2019-02-20T08:32:14.043Z,1011.74
2019-02-20T08:33:14.060Z,1011.73
2019-02-20T08:34:14.080Z,1011.77
2019-02-20T08:35:14.101Z,1011.76
2019-02-20T08:36:14.128Z,1011.74
2019-02-20T08:37:14.140Z,1011.74
2019-02-20T08:38:14.169Z,1011.80
2019-02-20T08:39:14.186Z,1011.71
2019-02-20T08:40:14.205Z,1011.76
2019-02-20T08:41:14.263Z,1011.69
2019-02-20T08:42:14.255Z,1011.70
2019-02-20T08:43:14.270Z,1011.71
2019-02-20T08:44:14.288Z,1011.63
2019-02-20T08:45:14.316Z,1011.69
2019-02-20T08:46:14.328Z,1011.69
2019-02-20T08:47:14.354Z,1011.71
2019-02-20T08:48:14.372Z,1011.70
2019-02-20T08:49:14.387Z,1011.70
2019-02-20T08:50:14.408Z,1011.71
2019-02-20T08:51:14.430Z,1011.72
2019-02-20T08:52:14.458Z,1011.68
2019-02-20T08:53:14.471Z,1011.63
2019-02-20T08:54:14.489Z,1011.72
2019-02-20T08:55:14.609Z,1011.66
2019-02-20T08:56:14.534Z,1011.70
2019-02-20T08:57:14.551Z,1011.71
2019-02-20T08:58:14.572Z,1011.69
2019-02-20T08:59:14.607Z,1011.72
2019-02-20T09:00:14.614Z,1011.70
2019-02-20T09:01:14.638Z,1011.69
2019-02-20T09:02:14.658Z,1011.64
2019-02-20T09:03:14.675Z,1011.63
2019-02-20T09:04:14.692Z,1011.67
2019-02-20T09:05:14.714Z,1011.75
2019-02-20T09:06:14.738Z,1011.78
2019-02-20T09:07:14.754Z,1011.78
2019-02-20T09:08:14.777Z,1011.78
2019-02-20T09:09:14.804Z,1011.80
2019-02-20T09:10:17.198Z,1011.80
2019-02-20T09:11:14.844Z,1011.81
2019-02-20T09:12:14.862Z,1011.79
2019-02-20T09:13:14.880Z,1011.88
2019-02-20T09:14:14.902Z,1011.90
2019-02-20T09:15:14.926Z,1011.83
2019-02-20T09:16:14.945Z,1011.85
2019-02-20T09:17:14.957Z,1011.90
2019-02-20T09:18:14.983Z,1011.88
2019-02-20T09:19:15.003Z,1011.91
2019-02-20T09:20:15.020Z,1011.79
2019-02-20T09:21:15.042Z,1011.89
2019-02-20T09:22:15.062Z,1011.85
2019-02-20T09:23:15.084Z,1011.83
2019-02-20T09:24:15.115Z,1011.84
2019-02-20T09:25:19.963Z,1011.87
2019-02-20T09:26:15.140Z,1011.82
2019-02-20T09:27:15.179Z,1011.84
2019-02-20T09:28:15.181Z,1011.82
2019-02-20T09:29:15.203Z,1011.84
2019-02-20T09:30:15.231Z,1011.87
2019-02-20T09:31:15.244Z,1011.87
2019-02-20T09:32:15.274Z,1011.85
2019-02-20T09:33:15.284Z,1011.85
2019-02-20T09:34:15.307Z,1011.87
2019-02-20T09:35:15.329Z,1011.89
2019-02-20T09:36:15.353Z,1011.87
2019-02-20T09:37:15.371Z,1011.89
2019-02-20T09:38:15.383Z,1011.87
2019-02-20T09:39:15.405Z,1011.90
2019-02-20T09:40:15.433Z,1011.97
2019-02-20T09:41:15.443Z,1012.09
2019-02-20T09:42:15.465Z,1012.03
2019-02-20T09:43:15.493Z,1012.14
2019-02-20T09:44:15.501Z,1012.15
2019-02-20T09:45:15.521Z,1012.15
2019-02-20T09:46:15.544Z,1012.18
2019-02-20T09:47:15.564Z,1012.16
2019-02-20T09:48:15.623Z,1012.17
2019-02-20T09:49:15.603Z,1012.19
2019-02-20T09:50:15.629Z,1012.21
2019-02-20T09:51:15.642Z,1012.25
2019-02-20T09:52:15.660Z,1012.21
2019-02-20T09:53:15.680Z,1012.21
2019-02-20T09:54:15.702Z,1012.16
2019-02-20T09:55:15.720Z,1012.17
2019-02-20T09:56:16.245Z,1012.17
2019-02-20T09:57:15.759Z,1012.25
2019-02-20T09:58:15.796Z,1012.14
2019-02-20T09:59:15.801Z,1012.31
2019-02-20T10:00:15.827Z,1012.30
2019-02-20T10:01:15.847Z,1012.28
2019-02-20T10:02:15.863Z,1012.35
2019-02-20T10:03:15.877Z,1012.30
2019-02-20T10:04:15.899Z,1012.30
2019-02-20T10:05:15.920Z,1012.33
2019-02-20T10:06:15.937Z,1012.32
2019-02-20T10:07:15.956Z,1012.28
2019-02-20T10:08:15.978Z,1012.25
2019-02-20T10:09:16.358Z,1012.33
2019-02-20T10:10:16.016Z,1012.27
2019-02-20T10:11:16.038Z,1012.40
2019-02-20T10:12:16.066Z,1012.38
2019-02-20T10:13:16.073Z,1012.35
2019-02-20T10:14:16.095Z,1012.38
2019-02-20T10:15:16.154Z,1012.40
2019-02-20T10:16:16.141Z,1012.43
2019-02-20T10:17:16.153Z,1012.39
2019-02-20T10:18:16.180Z,1012.44
2019-02-20T10:19:16.192Z,1012.43
2019-02-20T10:20:16.208Z,1012.42
2019-02-20T10:21:17.269Z,1012.49
2019-02-20T10:22:16.249Z,1012.46
2019-02-20T10:23:16.267Z,1012.46
2019-02-20T10:24:16.290Z,1012.54
2019-02-20T10:25:16.315Z,1012.53
2019-02-20T10:26:16.327Z,1012.55
2019-02-20T10:27:16.368Z,1012.49
2019-02-20T10:28:16.370Z,1012.55
2019-02-20T10:29:16.389Z,1012.57
2019-02-20T10:30:16.404Z,1012.50
2019-02-20T10:31:16.426Z,1012.51
2019-02-20T10:32:16.449Z,1012.55
2019-02-20T10:33:16.479Z,1012.51
2019-02-20T10:34:16.533Z,1012.50
2019-02-20T10:35:16.508Z,1012.50
2019-02-20T10:36:16.521Z,1012.50
2019-02-20T10:37:16.543Z,1012.55
2019-02-20T10:38:16.562Z,1012.51
2019-02-20T10:39:16.584Z,1012.54
2019-02-20T10:40:16.633Z,1012.49
2019-02-20T10:41:16.626Z,1012.60
2019-02-20T10:42:17.491Z,1012.55
2019-02-20T10:43:16.661Z,1012.58
2019-02-20T10:44:16.681Z,1012.59
2019-02-20T10:45:16.735Z,1012.59
2019-02-20T10:46:16.715Z,1012.56
2019-02-20T10:47:16.735Z,1012.58
2019-02-20T10:48:16.753Z,1012.63
2019-02-20T10:49:16.780Z,1012.60
2019-02-20T10:50:16.796Z,1012.59
2019-02-20T10:51:16.815Z,1012.57
2019-02-20T10:52:16.850Z,1012.58
2019-02-20T10:53:16.854Z,1012.63
2019-02-20T10:54:16.913Z,1012.64
2019-02-20T10:55:16.895Z,1012.60
2019-02-20T10:56:16.913Z,1012.68
2019-02-20T10:57:16.930Z,1012.68
2019-02-20T10:58:16.949Z,1012.70
2019-02-20T10:59:16.982Z,1012.70
2019-02-20T11:00:23.941Z,1012.73
2019-02-20T11:01:17.045Z,1012.77
2019-02-20T11:02:17.024Z,1012.79
2019-02-20T11:03:17.047Z,1012.78
2019-02-20T11:04:17.061Z,1012.75
2019-02-20T11:05:17.085Z,1012.80
2019-02-20T11:06:17.099Z,1012.77
2019-02-20T11:07:17.119Z,1012.85
2019-02-20T11:08:17.138Z,1012.88
2019-02-20T11:09:17.164Z,1012.86
2019-02-20T11:10:17.202Z,1012.88
2019-02-20T11:11:17.202Z,1012.89
2019-02-20T11:12:17.216Z,1013.01
2019-02-20T11:13:17.236Z,1013.05
2019-02-20T11:14:17.254Z,1013.05
2019-02-20T11:15:17.273Z,1013.11
2019-02-20T11:16:17.294Z,1013.12
2019-02-20T11:17:17.311Z,1013.12
2019-02-20T11:18:17.337Z,1013.10
2019-02-20T11:19:17.354Z,1013.16
2019-02-20T11:20:17.375Z,1013.20
2019-02-20T11:21:17.388Z,1013.11
2019-02-20T11:22:17.406Z,1013.12
2019-02-20T11:23:17.426Z,1013.14
2019-02-20T11:24:17.941Z,1013.13
2019-02-20T11:25:17.461Z,1013.14
2019-02-20T11:26:18.485Z,1013.18
2019-02-20T11:27:19.388Z,1013.18
2019-02-20T11:28:17.525Z,1013.21
2019-02-20T11:29:17.542Z,1013.25
2019-02-20T11:30:17.563Z,1013.24
2019-02-20T11:31:17.580Z,1013.23
2019-02-20T11:32:17.601Z,1013.22
2019-02-20T11:33:17.617Z,1013.24
2019-02-20T11:34:17.637Z,1013.27
2019-02-20T11:35:17.653Z,1013.32
2019-02-20T11:36:17.674Z,1013.30
2019-02-20T11:37:17.689Z,1013.31
2019-02-20T11:38:17.708Z,1013.28
2019-02-20T11:39:17.738Z,1013.34
2019-02-20T11:40:17.746Z,1013.36
2019-02-20T11:41:17.767Z,1013.33
2019-02-20T11:42:17.787Z,1013.38
2019-02-20T11:43:17.813Z,1013.37
2019-02-20T11:44:21.082Z,1013.36
2019-02-20T11:45:17.854Z,1013.38
2019-02-20T11:46:17.864Z,1013.40
2019-02-20T11:47:17.890Z,1013.36
2019-02-20T11:48:17.902Z,1013.42
2019-02-20T11:49:17.917Z,1013.44
2019-02-20T11:50:17.941Z,1013.43
2019-02-20T11:51:17.960Z,1013.48
2019-02-20T11:52:18.516Z,1013.43
2019-02-20T11:53:17.997Z,1013.52
2019-02-20T11:54:18.016Z,1013.44
2019-02-20T11:55:18.110Z,1013.44
2019-02-20T11:56:26.223Z,1013.52
2019-02-20T11:57:18.067Z,1013.55
2019-02-20T11:58:18.098Z,1013.53
2019-02-20T11:59:18.110Z,1013.55
2019-02-20T12:00:18.128Z,1013.57
2019-02-20T12:01:18.145Z,1013.56
2019-02-20T12:02:18.165Z,1013.55
2019-02-20T12:03:18.183Z,1013.58
2019-02-20T12:04:18.200Z,1013.62
2019-02-20T12:05:18.220Z,1013.58